KTYS/TYS METAR and TAF weather

Enter ICAO airport designator
Station Type Date Time Source
KTYS METAR 2020/12/06 00:53 UTC NOAA

KTYS 060053Z 20003KT 10SM CLR 06/02 A3006 RMK AO2 SLP183 T00610017 $


Station Type Date Time Source
KTYS Decoded METAR 2020/12/06 00:53 UTC NOAA

MCGHEE TYSON AIRPORT, TN, United States (KTYS) 35-49N 083-59W 302M
Dec 05, 2020 - 07:53 PM EST / 2020.12.06 0053 UTC
Wind: from the SSW (200 degrees) at 3 MPH (3 KT):0
Visibility: 10 mile(s):0
Sky conditions: clear
Temperature: 43.0 F (6.1 C)
Dew Point: 35.1 F (1.7 C)
Relative Humidity: 73%
Pressure (altimeter): 30.06 in. Hg (1017 hPa)
ob: KTYS 060053Z 20003KT 10SM CLR 06/02 A3006 RMK AO2 SLP183 T00610017
cycle: 1

Station Type Date Time Source
KTYS TAF 2020/12/05 18:22 UTC NOAA

TAF KTYS 051720Z 0518/0618 25005KT P6SM FEW200
FM060900 00000KT 4SM BR SCT250
FM061100 00000KT 1SM BR BKN008
FM061500 24004KT P6SM SCT100

Example: see airport list